Time;durP1;ratioP1;P1;durP2;ratioP2;P2;SDS_P1;SDS_P2;PMS_P1;PMS_P2;Temp;Humidity;BMP_temperature;BMP_pressure;BME280_temperature;BME280_humidity;BME280_pressure;Samples;Min_cycle;Max_cycle;Signal;HPM_P1;HPM_P2
2022/11/09 00:01:16;;;;;;;3.90;2.50;;;;;;;;;;5053671;28;20024;-38
2022/11/09 00:03:42;;;;;;;4.43;2.60;;;;;;;;;;5053794;28;20029;-38
2022/11/09 00:06:08;;;;;;;3.90;2.63;;;;;;;;;;5054144;28;20036;-39
2022/11/09 00:08:36;;;;;;;3.53;2.30;;;;;;;;;;5054402;28;20029;-42
2022/11/09 00:11:06;;;;;;;4.95;2.78;;;;;;;;;;5054059;28;20044;-38
2022/11/09 00:13:35;;;;;;;4.43;2.70;;;;;;;;;;5054708;28;20036;-38
2022/11/09 00:16:01;;;;;;;4.28;3.03;;;;;;;;;;5053847;28;20037;-38
2022/11/09 00:18:28;;;;;;;3.72;2.53;;;;;;;;;;5052732;28;20032;-38
2022/11/09 00:20:54;;;;;;;4.13;2.50;;;;;;;;;;5046200;28;20037;-37
2022/11/09 00:23:20;;;;;;;4.40;2.97;;;;;;;;;;5052557;28;20366;-38
2022/11/09 00:25:46;;;;;;;3.83;2.67;;;;;;;;;;5053117;28;20108;-38
2022/11/09 00:28:12;;;;;;;3.95;2.38;;;;;;;;;;5042252;28;20030;-38
2022/11/09 00:30:38;;;;;;;3.75;2.53;;;;;;;;;;5051658;28;20027;-44
2022/11/09 00:33:04;;;;;;;3.83;2.50;;;;;;;;;;5053784;28;20099;-45
2022/11/09 00:35:30;;;;;;;6.35;2.63;;;;;;;;;;5053361;28;20099;-37
2022/11/09 00:37:56;;;;;;;3.90;2.75;;;;;;;;;;5048501;28;20105;-38
2022/11/09 00:40:22;;;;;;;4.53;2.60;;;;;;;;;;5053039;28;20493;-37
2022/11/09 00:42:48;;;;;;;3.80;2.50;;;;;;;;;;5052642;28;20057;-37
2022/11/09 00:45:14;;;;;;;5.53;2.70;;;;;;;;;;5052850;28;20017;-38
2022/11/09 00:47:40;;;;;;;4.20;2.33;;;;;;;;;;5052926;28;20025;-41
2022/11/09 00:50:06;;;;;;;4.53;2.50;;;;;;;;;;5052081;28;20371;-37
2022/11/09 00:52:32;;;;;;;3.58;2.20;;;;;;;;;;5048787;28;20029;-38
2022/11/09 00:54:58;;;;;;;3.53;2.20;;;;;;;;;;5046640;28;20032;-37
2022/11/09 00:57:24;;;;;;;4.30;2.72;;;;;;;;;;5034997;28;20033;-40
2022/11/09 00:59:52;;;;;;;5.43;3.00;;;;;;;;;;5046623;28;20017;-40
2022/11/09 01:02:18;;;;;;;3.72;2.50;;;;;;;;;;5047934;28;20090;-44
2022/11/09 01:04:44;;;;;;;4.18;2.83;;;;;;;;;;5051099;28;20510;-39
2022/11/09 01:07:10;;;;;;;4.35;3.00;;;;;;;;;;5053236;28;20099;-39
2022/11/09 01:09:36;;;;;;;3.53;2.50;;;;;;;;;;5052258;28;20032;-39
2022/11/09 01:12:02;;;;;;;4.93;2.70;;;;;;;;;;5051802;28;20025;-39
2022/11/09 01:14:28;;;;;;;4.05;2.30;;;;;;;;;;5051761;28;20355;-39
2022/11/09 01:16:54;;;;;;;4.80;2.60;;;;;;;;;;5052216;28;20025;-39
2022/11/09 01:19:20;;;;;;;6.35;3.20;;;;;;;;;;5050385;28;20048;-40
2022/11/09 01:21:46;;;;;;;4.57;2.55;;;;;;;;;;5051178;28;20208;-39
2022/11/09 01:24:12;;;;;;;4.47;2.10;;;;;;;;;;5052315;28;20037;-39
2022/11/09 01:26:38;;;;;;;3.70;2.53;;;;;;;;;;5051813;28;20107;-43
2022/11/09 01:29:04;;;;;;;3.40;2.60;;;;;;;;;;5041286;28;20025;-39
2022/11/09 01:31:30;;;;;;;3.35;2.60;;;;;;;;;;5051790;28;20013;-39
2022/11/09 01:33:56;;;;;;;6.10;3.22;;;;;;;;;;5051531;28;20056;-39
2022/11/09 01:36:23;;;;;;;3.55;2.47;;;;;;;;;;5051496;28;20060;-39
2022/11/09 01:38:49;;;;;;;3.60;2.53;;;;;;;;;;5051540;28;20383;-39
2022/11/09 01:41:18;;;;;;;4.05;2.67;;;;;;;;;;5051708;28;20060;-39
2022/11/09 01:43:45;;;;;;;4.05;2.15;;;;;;;;;;5051181;28;20025;-39
2022/11/09 01:46:18;;;;;;;4.55;2.65;;;;;;;;;;5051220;28;20021;-39
2022/11/09 01:48:56;;;;;;;3.30;2.55;;;;;;;;;;5048979;28;20033;-39
2022/11/09 01:51:27;;;;;;;3.63;3.03;;;;;;;;;;5051218;28;20405;-38
2022/11/09 01:53:56;;;;;;;3.58;2.20;;;;;;;;;;5051153;28;20082;-38
2022/11/09 01:56:23;;;;;;;3.45;2.35;;;;;;;;;;5051590;28;20036;-39
2022/11/09 01:58:52;;;;;;;3.08;2.20;;;;;;;;;;5051507;28;20025;-38
2022/11/09 02:01:18;;;;;;;4.00;2.30;;;;;;;;;;5051574;28;20032;-38
2022/11/09 02:03:53;;;;;;;5.00;3.20;;;;;;;;;;5051380;28;20024;-39
2022/11/09 02:06:20;;;;;;;3.50;2.08;;;;;;;;;;5050540;28;20032;-38
2022/11/09 02:08:47;;;;;;;4.03;2.50;;;;;;;;;;5050752;28;20491;-39
2022/11/09 02:11:15;;;;;;;3.42;2.70;;;;;;;;;;5046930;28;20067;-38
2022/11/09 02:13:44;;;;;;;3.67;2.47;;;;;;;;;;5051521;28;20036;-43
2022/11/09 02:16:11;;;;;;;3.38;2.30;;;;;;;;;;5051017;28;20105;-38
2022/11/09 02:18:40;;;;;;;3.10;1.90;;;;;;;;;;5049999;28;20033;-40
2022/11/09 02:21:06;;;;;;;4.25;2.47;;;;;;;;;;5049195;28;20051;-39
2022/11/09 02:23:32;;;;;;;4.50;2.40;;;;;;;;;;5051998;28;20033;-38
2022/11/09 02:26:10;;;;;;;3.60;2.25;;;;;;;;;;5049450;28;20523;-42
2022/11/09 02:28:38;;;;;;;4.00;2.22;;;;;;;;;;5035651;28;20029;-38
2022/11/09 02:31:05;;;;;;;4.38;2.80;;;;;;;;;;5050127;28;20017;-38
2022/11/09 02:33:39;;;;;;;4.50;2.85;;;;;;;;;;5051501;28;20083;-38
2022/11/09 02:36:05;;;;;;;3.22;2.10;;;;;;;;;;5050193;28;20072;-38
2022/11/09 02:38:31;;;;;;;3.88;2.67;;;;;;;;;;5051458;28;20032;-39
2022/11/09 02:40:57;;;;;;;3.47;2.33;;;;;;;;;;5049579;28;20432;-39
2022/11/09 02:43:23;;;;;;;3.92;2.72;;;;;;;;;;5045919;28;20021;-38
2022/11/09 02:45:49;;;;;;;3.13;2.30;;;;;;;;;;5048832;28;20114;-39
2022/11/09 02:48:15;;;;;;;3.80;2.33;;;;;;;;;;5049541;28;20057;-38
2022/11/09 02:50:41;;;;;;;3.55;2.50;;;;;;;;;;5043588;28;20033;-44
2022/11/09 02:53:07;;;;;;;4.65;2.63;;;;;;;;;;5049706;28;20037;-38
2022/11/09 02:55:33;;;;;;;2.97;2.30;;;;;;;;;;5032496;28;20079;-38
2022/11/09 02:58:00;;;;;;;3.13;2.13;;;;;;;;;;5049498;28;20025;-38
2022/11/09 03:00:26;;;;;;;2.95;2.00;;;;;;;;;;5049990;28;20033;-39
2022/11/09 03:02:52;;;;;;;2.63;2.13;;;;;;;;;;5039583;28;20029;-39
2022/11/09 03:05:18;;;;;;;3.33;2.28;;;;;;;;;;5050279;28;20027;-38
2022/11/09 03:07:44;;;;;;;4.13;2.33;;;;;;;;;;5050134;28;20019;-42
2022/11/09 03:10:10;;;;;;;3.92;2.00;;;;;;;;;;5050099;28;20036;-38
2022/11/09 03:12:36;;;;;;;3.45;2.20;;;;;;;;;;5050788;28;20029;-39
2022/11/09 03:15:05;;;;;;;3.67;2.03;;;;;;;;;;5049063;28;20100;-38
2022/11/09 03:17:31;;;;;;;3.90;2.78;;;;;;;;;;5050730;28;20025;-38
2022/11/09 03:19:57;;;;;;;4.68;2.35;;;;;;;;;;5055655;28;20087;-39
2022/11/09 03:22:23;;;;;;;3.75;2.50;;;;;;;;;;5057397;28;20044;-39
2022/11/09 03:24:49;;;;;;;3.17;2.30;;;;;;;;;;5055570;28;20063;-43
2022/11/09 03:27:15;;;;;;;4.50;2.50;;;;;;;;;;5057342;28;20044;-38
2022/11/09 03:29:41;;;;;;;4.05;2.95;;;;;;;;;;5056741;28;20048;-44
2022/11/09 03:32:07;;;;;;;3.92;2.65;;;;;;;;;;5056586;28;20071;-39
2022/11/09 03:34:34;;;;;;;3.53;2.13;;;;;;;;;;5056268;28;20037;-39
2022/11/09 03:37:00;;;;;;;3.95;1.95;;;;;;;;;;5056271;28;20112;-39
2022/11/09 03:39:26;;;;;;;3.65;1.90;;;;;;;;;;5056466;28;20071;-39
2022/11/09 03:41:52;;;;;;;3.03;2.20;;;;;;;;;;5056486;28;20478;-42
2022/11/09 03:44:19;;;;;;;3.47;2.03;;;;;;;;;;5056917;28;20028;-40
2022/11/09 03:46:45;;;;;;;3.22;2.08;;;;;;;;;;5056608;28;20025;-45
2022/11/09 03:49:11;;;;;;;6.18;2.35;;;;;;;;;;5055676;28;20062;-38
2022/11/09 03:51:37;;;;;;;3.53;1.83;;;;;;;;;;5052085;28;20044;-38
2022/11/09 03:54:03;;;;;;;2.40;1.80;;;;;;;;;;5056476;28;20029;-38
2022/11/09 03:56:29;;;;;;;3.03;2.10;;;;;;;;;;5056952;28;20033;-38
2022/11/09 03:58:55;;;;;;;2.78;2.03;;;;;;;;;;5052636;28;20047;-39
2022/11/09 04:01:21;;;;;;;3.72;2.78;;;;;;;;;;5055110;28;20021;-39
2022/11/09 04:03:47;;;;;;;3.60;1.80;;;;;;;;;;5055429;28;20033;-43
2022/11/09 04:06:13;;;;;;;3.45;2.05;;;;;;;;;;5056588;28;20074;-38
2022/11/09 04:08:39;;;;;;;3.17;2.08;;;;;;;;;;5057153;28;20021;-38
2022/11/09 04:11:05;;;;;;;2.85;2.13;;;;;;;;;;5055520;28;20024;-39
2022/11/09 04:13:31;;;;;;;3.55;1.90;;;;;;;;;;5056275;28;20028;-38
2022/11/09 04:15:57;;;;;;;2.45;1.52;;;;;;;;;;5049941;28;20071;-39
2022/11/09 04:18:23;;;;;;;4.47;1.90;;;;;;;;;;5055470;28;20021;-38
2022/11/09 04:20:49;;;;;;;2.72;1.60;;;;;;;;;;5054000;28;20425;-39
2022/11/09 04:23:15;;;;;;;2.88;1.88;;;;;;;;;;5057286;28;20029;-39
2022/11/09 04:25:41;;;;;;;2.38;1.67;;;;;;;;;;5056671;28;20074;-39
2022/11/09 04:28:08;;;;;;;2.22;1.83;;;;;;;;;;5044798;28;20260;-39
2022/11/09 04:30:34;;;;;;;3.03;2.25;;;;;;;;;;5049743;28;20116;-39
2022/11/09 04:33:01;;;;;;;2.33;1.63;;;;;;;;;;5043675;28;20510;-39
2022/11/09 04:35:28;;;;;;;2.70;1.58;;;;;;;;;;5052522;28;20163;-38
2022/11/09 04:37:55;;;;;;;2.42;1.80;;;;;;;;;;5040765;28;20038;-39
2022/11/09 04:40:21;;;;;;;3.60;1.58;;;;;;;;;;5052332;28;20056;-39
2022/11/09 04:42:47;;;;;;;2.20;1.90;;;;;;;;;;5052469;28;20100;-43
2022/11/09 04:45:13;;;;;;;2.50;1.45;;;;;;;;;;5052640;28;20441;-39
2022/11/09 04:47:39;;;;;;;2.75;1.88;;;;;;;;;;5051595;28;20049;-39
2022/11/09 04:50:05;;;;;;;3.00;1.70;;;;;;;;;;5046226;28;20637;-39
2022/11/09 04:52:31;;;;;;;2.55;1.70;;;;;;;;;;5052534;28;20029;-38
2022/11/09 04:54:57;;;;;;;2.20;1.58;;;;;;;;;;5051734;28;20021;-39
2022/11/09 04:57:23;;;;;;;2.67;1.73;;;;;;;;;;5053000;28;20059;-39
2022/11/09 04:59:49;;;;;;;2.67;1.70;;;;;;;;;;5051323;28;20049;-40
2022/11/09 05:02:15;;;;;;;3.40;1.80;;;;;;;;;;5052773;28;20036;-39
2022/11/09 05:04:42;;;;;;;3.28;1.85;;;;;;;;;;5051303;28;20032;-42
2022/11/09 05:07:08;;;;;;;4.20;1.80;;;;;;;;;;5050361;28;20028;-39
2022/11/09 05:09:34;;;;;;;2.55;1.42;;;;;;;;;;5050828;28;20021;-39
2022/11/09 05:12:00;;;;;;;2.80;1.80;;;;;;;;;;5050389;28;20473;-39
2022/11/09 05:14:26;;;;;;;3.03;1.70;;;;;;;;;;5050497;28;20093;-39
2022/11/09 05:16:52;;;;;;;2.88;1.65;;;;;;;;;;5049130;28;20082;-40
2022/11/09 05:19:18;;;;;;;5.15;2.22;;;;;;;;;;5050493;28;20406;-44
2022/11/09 05:21:43;;;;;;;2.15;1.40;;;;;;;;;;5050998;28;20044;-39
2022/11/09 05:24:09;;;;;;;2.65;1.95;;;;;;;;;;5050710;28;20017;-39
2022/11/09 05:26:36;;;;;;;2.20;1.52;;;;;;;;;;5050336;28;20078;-39
2022/11/09 05:29:06;;;;;;;11.13;1.73;;;;;;;;;;5050207;28;20139;-40
2022/11/09 05:31:33;;;;;;;2.08;1.35;;;;;;;;;;5048381;28;20494;-40
2022/11/09 05:33:59;;;;;;;2.92;1.67;;;;;;;;;;5050741;28;20115;-39
2022/11/09 05:36:26;;;;;;;3.50;1.60;;;;;;;;;;5050619;28;20151;-42
2022/11/09 05:38:52;;;;;;;2.00;1.40;;;;;;;;;;5050559;28;20036;-40
2022/11/09 05:41:18;;;;;;;3.88;1.75;;;;;;;;;;5050793;28;20013;-41
2022/11/09 05:43:44;;;;;;;2.83;1.98;;;;;;;;;;5050949;28;20040;-46
2022/11/09 05:46:11;;;;;;;3.40;1.50;;;;;;;;;;5049986;28;20555;-39
2022/11/09 05:48:37;;;;;;;2.03;1.13;;;;;;;;;;5046822;28;20386;-39
2022/11/09 05:51:04;;;;;;;2.53;1.45;;;;;;;;;;5049016;28;20017;-39
2022/11/09 05:53:30;;;;;;;2.90;1.65;;;;;;;;;;5048636;28;20466;-43
2022/11/09 05:56:00;;;;;;;2.47;1.35;;;;;;;;;;5049788;28;20067;-39
2022/11/09 05:58:26;;;;;;;2.75;1.55;;;;;;;;;;5050441;28;20470;-39
2022/11/09 06:00:52;;;;;;;2.90;1.45;;;;;;;;;;5049383;28;20138;-39
2022/11/09 06:03:18;;;;;;;2.30;1.50;;;;;;;;;;5052229;28;20442;-39
2022/11/09 06:05:44;;;;;;;1.65;1.30;;;;;;;;;;5045984;28;20033;-43
2022/11/09 06:08:11;;;;;;;2.55;1.20;;;;;;;;;;5051662;28;20025;-39
2022/11/09 06:10:38;;;;;;;3.30;1.75;;;;;;;;;;5051519;28;20370;-39
2022/11/09 06:13:04;;;;;;;3.40;1.65;;;;;;;;;;5033281;28;20029;-39
2022/11/09 06:15:30;;;;;;;2.10;1.40;;;;;;;;;;5051272;28;20032;-39
2022/11/09 06:17:57;;;;;;;1.75;1.23;;;;;;;;;;5050168;28;20044;-39
2022/11/09 06:20:23;;;;;;;3.70;1.42;;;;;;;;;;5050574;28;20072;-39
2022/11/09 06:23:08;;;;;;;4.15;2.55;;;;;;;;;;5042033;28;20449;-42
2022/11/09 06:25:34;;;;;;;2.35;1.40;;;;;;;;;;5049546;28;20170;-39
2022/11/09 06:28:00;;;;;;;7.47;1.92;;;;;;;;;;5021563;28;20049;-39
2022/11/09 06:30:26;;;;;;;2.75;1.27;;;;;;;;;;5048783;28;20490;-39
2022/11/09 06:32:57;;;;;;;1.95;1.45;;;;;;;;;;5050433;28;20074;-39
2022/11/09 06:35:23;;;;;;;2.83;1.60;;;;;;;;;;5048934;28;20140;-39
2022/11/09 06:37:53;;;;;;;2.65;1.63;;;;;;;;;;5050108;28;20740;-44
2022/11/09 06:40:19;;;;;;;1.73;1.40;;;;;;;;;;5044192;28;20470;-39
2022/11/09 06:42:45;;;;;;;4.05;1.80;;;;;;;;;;5051130;28;20105;-39
2022/11/09 06:45:11;;;;;;;1.73;1.45;;;;;;;;;;5048984;28;20032;-40
2022/11/09 06:47:37;;;;;;;2.63;1.75;;;;;;;;;;5051293;28;20040;-39
2022/11/09 06:50:03;;;;;;;3.47;1.58;;;;;;;;;;5049681;28;20021;-39
2022/11/09 06:52:29;;;;;;;3.40;1.88;;;;;;;;;;5049935;28;20033;-39
2022/11/09 06:54:55;;;;;;;2.97;1.52;;;;;;;;;;5049031;28;20025;-39
2022/11/09 06:57:21;;;;;;;4.25;2.17;;;;;;;;;;5050794;28;20024;-39
2022/11/09 06:59:47;;;;;;;5.25;1.95;;;;;;;;;;5050361;28;20021;-43
2022/11/09 07:02:16;;;;;;;3.30;1.70;;;;;;;;;;5050752;28;20025;-39
2022/11/09 07:04:42;;;;;;;6.95;1.75;;;;;;;;;;5050087;28;20094;-38
2022/11/09 07:07:08;;;;;;;5.55;1.92;;;;;;;;;;5048399;28;20601;-39
2022/11/09 07:09:34;;;;;;;6.75;2.08;;;;;;;;;;5048640;28;20036;-40
2022/11/09 07:12:00;;;;;;;3.65;1.40;;;;;;;;;;5050114;28;20374;-39
2022/11/09 07:14:26;;;;;;;5.53;1.60;;;;;;;;;;5047450;28;20071;-39
2022/11/09 07:16:52;;;;;;;2.95;1.80;;;;;;;;;;5044103;28;20444;-40
2022/11/09 07:19:18;;;;;;;4.70;1.90;;;;;;;;;;5049507;28;20043;-42
2022/11/09 07:21:44;;;;;;;3.65;1.40;;;;;;;;;;5049477;28;20382;-39
2022/11/09 07:24:10;;;;;;;4.55;2.53;;;;;;;;;;5050378;28;20017;-39
2022/11/09 07:26:36;;;;;;;3.45;1.75;;;;;;;;;;5050792;28;20473;-39
2022/11/09 07:29:02;;;;;;;5.03;2.00;;;;;;;;;;5037929;28;20087;-38
2022/11/09 07:31:29;;;;;;;9.27;3.15;;;;;;;;;;5044153;28;20530;-37
2022/11/09 07:33:57;;;;;;;9.57;3.20;;;;;;;;;;5042059;28;20037;-39
2022/11/09 07:36:23;;;;;;;11.55;3.55;;;;;;;;;;5049303;28;20039;-38
2022/11/09 07:38:49;;;;;;;9.68;2.60;;;;;;;;;;5046787;28;20104;-40
2022/11/09 07:41:15;;;;;;;6.82;3.17;;;;;;;;;;5049280;28;20017;-38
2022/11/09 07:43:41;;;;;;;8.02;2.70;;;;;;;;;;5049494;28;20343;-38
2022/11/09 07:46:07;;;;;;;10.93;3.13;;;;;;;;;;5030740;28;20021;-39
2022/11/09 07:48:33;;;;;;;5.72;2.80;;;;;;;;;;5050430;28;20025;-39
2022/11/09 07:51:02;;;;;;;5.45;2.78;;;;;;;;;;5043576;28;20029;-39
2022/11/09 07:53:28;;;;;;;7.65;2.65;;;;;;;;;;5050711;28;20517;-40
2022/11/09 07:55:58;;;;;;;9.18;3.33;;;;;;;;;;5049842;28;20069;-41
2022/11/09 07:58:24;;;;;;;7.25;2.20;;;;;;;;;;5051118;28;20052;-39
2022/11/09 08:00:50;;;;;;;5.53;1.85;;;;;;;;;;5049556;28;20063;-39
2022/11/09 08:03:17;;;;;;;7.47;2.20;;;;;;;;;;5050898;28;20070;-39
2022/11/09 08:05:43;;;;;;;7.18;2.17;;;;;;;;;;5047404;28;20032;-39
2022/11/09 08:08:10;;;;;;;6.35;2.50;;;;;;;;;;5053924;28;20033;-39
2022/11/09 08:10:37;;;;;;;5.10;2.38;;;;;;;;;;5054114;28;20117;-39
2022/11/09 08:13:04;;;;;;;5.20;2.40;;;;;;;;;;5053826;28;20033;-39
2022/11/09 08:15:31;;;;;;;7.75;3.20;;;;;;;;;;5053812;28;20025;-40
2022/11/09 08:18:01;;;;;;;6.75;2.85;;;;;;;;;;5053843;28;20033;-39
2022/11/09 08:20:27;;;;;;;7.05;2.30;;;;;;;;;;5052828;28;20124;-39
2022/11/09 08:22:53;;;;;;;4.82;2.40;;;;;;;;;;5048804;28;20456;-39
2022/11/09 08:25:19;;;;;;;7.53;2.58;;;;;;;;;;5048689;28;20474;-39
2022/11/09 08:27:45;;;;;;;6.88;1.83;;;;;;;;;;5054127;28;20028;-39
2022/11/09 08:30:12;;;;;;;4.78;2.13;;;;;;;;;;5052869;28;20515;-39
2022/11/09 08:32:38;;;;;;;6.47;2.22;;;;;;;;;;5046056;28;20144;-39
2022/11/09 08:35:05;;;;;;;5.22;1.73;;;;;;;;;;5048502;28;20486;-39
2022/11/09 08:37:33;;;;;;;4.10;2.10;;;;;;;;;;5044142;28;20047;-39
2022/11/09 08:39:59;;;;;;;6.25;2.05;;;;;;;;;;5050748;28;20033;-39
2022/11/09 08:42:25;;;;;;;5.40;2.70;;;;;;;;;;5053100;28;20706;-39
2022/11/09 08:44:51;;;;;;;5.30;2.03;;;;;;;;;;5046790;28;20212;-48
2022/11/09 08:47:17;;;;;;;4.95;2.20;;;;;;;;;;5037737;28;20096;-39
2022/11/09 08:49:43;;;;;;;3.88;2.00;;;;;;;;;;5044946;28;20474;-40
2022/11/09 08:52:09;;;;;;;6.65;1.58;;;;;;;;;;5043844;28;20078;-41
2022/11/09 08:54:36;;;;;;;5.20;2.17;;;;;;;;;;5044995;28;20109;-39
2022/11/09 08:57:02;;;;;;;5.65;2.63;;;;;;;;;;5042744;28;20094;-39
2022/11/09 08:59:28;;;;;;;4.32;2.08;;;;;;;;;;5043748;28;20017;-39
2022/11/09 09:01:54;;;;;;;4.85;2.25;;;;;;;;;;5052070;28;20134;-41
2022/11/09 09:04:20;;;;;;;5.28;1.85;;;;;;;;;;5034281;28;20113;-40
2022/11/09 09:06:46;;;;;;;6.40;2.20;;;;;;;;;;5052884;28;20021;-39
2022/11/09 09:09:11;;;;;;;4.78;2.00;;;;;;;;;;5051939;28;20486;-39
2022/11/09 09:11:37;;;;;;;6.22;1.90;;;;;;;;;;5052227;28;20090;-39
2022/11/09 09:14:04;;;;;;;5.38;2.42;;;;;;;;;;5051732;28;20039;-40
2022/11/09 09:16:30;;;;;;;3.90;2.22;;;;;;;;;;5050740;28;20111;-39
2022/11/09 09:18:56;;;;;;;3.63;1.92;;;;;;;;;;5051919;28;20525;-39
2022/11/09 09:21:22;;;;;;;5.15;2.15;;;;;;;;;;5049493;28;20029;-39
2022/11/09 09:23:48;;;;;;;3.10;1.80;;;;;;;;;;5052420;28;20051;-40
2022/11/09 09:26:14;;;;;;;3.63;1.45;;;;;;;;;;5050049;28;20462;-40
2022/11/09 09:28:40;;;;;;;4.43;1.92;;;;;;;;;;5053114;28;20021;-39
2022/11/09 09:31:06;;;;;;;4.97;2.05;;;;;;;;;;5051493;28;20021;-39
2022/11/09 09:33:32;;;;;;;2.90;1.73;;;;;;;;;;5052304;28;20040;-39
2022/11/09 09:35:59;;;;;;;3.38;1.98;;;;;;;;;;5051194;28;20041;-40
2022/11/09 09:38:26;;;;;;;6.05;1.95;;;;;;;;;;5047966;28;20065;-40
2022/11/09 09:40:59;;;;;;;4.03;1.83;;;;;;;;;;5044232;28;20029;-44
2022/11/09 09:43:28;;;;;;;3.42;1.65;;;;;;;;;;5054716;28;20018;-39
2022/11/09 09:45:54;;;;;;;5.00;1.80;;;;;;;;;;5044087;28;20033;-44
2022/11/09 09:48:27;;;;;;;3.50;1.63;;;;;;;;;;5052201;28;20037;-39
2022/11/09 09:50:54;;;;;;;5.03;2.28;;;;;;;;;;5049654;28;20060;-44
2022/11/09 09:53:29;;;;;;;2.85;1.50;;;;;;;;;;5052097;28;20071;-39
2022/11/09 09:56:09;;;;;;;3.50;1.70;;;;;;;;;;5051867;28;20112;-43
2022/11/09 09:58:38;;;;;;;5.10;1.83;;;;;;;;;;5051667;28;20032;-39
2022/11/09 10:01:21;;;;;;;2.78;1.50;;;;;;;;;;5050835;28;20070;-40
2022/11/09 10:03:48;;;;;;;6.80;2.00;;;;;;;;;;5045322;28;20391;-39
2022/11/09 10:06:25;;;;;;;5.35;2.35;;;;;;;;;;5050343;28;20020;-39
2022/11/09 10:09:14;;;;;;;5.00;2.13;;;;;;;;;;5046094;28;20025;-45
2022/11/09 10:11:40;;;;;;;2.80;1.35;;;;;;;;;;5038065;28;20041;-39
2022/11/09 10:14:12;;;;;;;4.32;1.92;;;;;;;;;;5050454;28;20423;-39
2022/11/09 10:16:38;;;;;;;;;;;;;;;;;;5049367;28;20663;-39
2022/11/09 10:19:19;;;;;;;4.30;1.30;;;;;;;;;;5038578;28;19917;-40
2022/11/09 10:21:52;;;;;;;4.45;2.25;;;;;;;;;;5045498;28;20040;-39
2022/11/09 10:24:36;;;;;;;3.72;1.77;;;;;;;;;;5046605;28;20036;-41
2022/11/09 10:27:09;;;;;;;2.58;1.45;;;;;;;;;;5043311;28;20106;-39
2022/11/09 10:29:44;;;;;;;3.33;1.63;;;;;;;;;;5048920;28;20032;-39
2022/11/09 10:32:14;;;;;;;4.70;1.80;;;;;;;;;;5047085;28;20492;-39
2022/11/09 10:34:46;;;;;;;2.50;1.52;;;;;;;;;;5049335;28;20044;-39
2022/11/09 10:37:18;;;;;;;6.10;2.17;;;;;;;;;;5044477;28;20556;-39
2022/11/09 10:40:03;;;;;;;3.25;1.33;;;;;;;;;;5042924;28;20037;-40
2022/11/09 10:42:29;;;;;;;3.30;1.50;;;;;;;;;;5044144;28;20600;-39
2022/11/09 10:44:55;;;;;;;2.55;1.27;;;;;;;;;;5042893;28;20086;-44
2022/11/09 10:47:21;;;;;;;3.28;1.60;;;;;;;;;;5050625;28;20108;-39
2022/11/09 10:50:04;;;;;;;3.00;1.38;;;;;;;;;;5049688;28;20025;-39
2022/11/09 10:52:38;;;;;;;2.47;1.42;;;;;;;;;;5041189;28;20029;-39
2022/11/09 10:55:35;;;;;;;3.78;1.73;;;;;;;;;;5044055;28;20037;-39
2022/11/09 10:58:21;;;;;;;3.17;1.35;;;;;;;;;;5024601;28;20111;-40
2022/11/09 11:01:03;;;;;;;1.63;1.15;;;;;;;;;;5026806;28;20107;-39
2022/11/09 11:03:30;;;;;;;3.40;1.33;;;;;;;;;;5040289;28;20066;-39
2022/11/09 11:05:57;;;;;;;3.15;1.70;;;;;;;;;;5048475;28;20028;-46
2022/11/09 11:08:32;;;;;;;2.65;1.70;;;;;;;;;;5040689;28;20029;-39
2022/11/09 11:11:06;;;;;;;2.13;1.33;;;;;;;;;;5044000;28;20029;-39
2022/11/09 11:13:32;;;;;;;2.30;1.27;;;;;;;;;;5048146;28;20021;-39
2022/11/09 11:15:58;;;;;;;1.48;1.00;;;;;;;;;;5049491;28;20110;-39
2022/11/09 11:18:25;;;;;;;4.40;1.55;;;;;;;;;;5042524;28;20108;-39
2022/11/09 11:21:06;;;;;;;2.47;1.50;;;;;;;;;;5049981;28;20278;-39
2022/11/09 11:23:35;;;;;;;2.63;1.50;;;;;;;;;;5041435;28;20037;-39
2022/11/09 11:26:21;;;;;;;2.13;1.40;;;;;;;;;;5046010;28;20029;-39
2022/11/09 11:29:01;;;;;;;2.45;1.20;;;;;;;;;;5020419;28;20029;-40
2022/11/09 11:31:27;;;;;;;3.15;1.10;;;;;;;;;;5033864;28;20018;-40
2022/11/09 11:33:53;;;;;;;3.70;1.45;;;;;;;;;;5048158;28;20074;-41
2022/11/09 11:36:27;;;;;;;2.40;1.77;;;;;;;;;;5044192;28;20021;-41
2022/11/09 11:38:53;;;;;;;2.80;1.20;;;;;;;;;;5051108;28;20021;-39
2022/11/09 11:41:30;;;;;;;5.85;1.50;;;;;;;;;;5053783;28;20454;-39
2022/11/09 11:44:01;;;;;;;3.03;1.33;;;;;;;;;;5054078;28;20049;-44
2022/11/09 11:46:33;;;;;;;3.87;1.70;;;;;;;;;;5053723;28;20163;-40
2022/11/09 11:49:18;;;;;;;2.60;1.23;;;;;;;;;;5054028;28;20264;-39
2022/11/09 11:51:56;;;;;;;3.65;1.30;;;;;;;;;;5053468;28;20040;-39
2022/11/09 11:54:33;;;;;;;2.53;1.30;;;;;;;;;;5053987;28;20040;-41
2022/11/09 11:57:11;;;;;;;2.28;1.42;;;;;;;;;;5053392;28;20033;-39
2022/11/09 11:59:54;;;;;;;1.75;1.20;;;;;;;;;;5053810;28;20032;-39
2022/11/09 12:02:38;;;;;;;1.98;1.10;;;;;;;;;;5053317;28;20542;-40
2022/11/09 12:05:24;;;;;;;2.15;1.10;;;;;;;;;;5052367;28;20071;-39
2022/11/09 12:07:50;;;;;;;2.63;1.40;;;;;;;;;;5054053;28;20029;-39
2022/11/09 12:10:19;;;;;;;2.88;1.35;;;;;;;;;;5052470;28;20025;-39
2022/11/09 12:12:57;;;;;;;1.73;0.88;;;;;;;;;;5056021;28;20051;-39
2022/11/09 12:15:30;;;;;;;2.13;1.40;;;;;;;;;;5046525;28;20049;-39
2022/11/09 12:18:03;;;;;;;2.40;1.38;;;;;;;;;;5050121;28;20029;-43
2022/11/09 12:20:42;;;;;;;3.47;1.52;;;;;;;;;;5050854;28;20474;-39
2022/11/09 12:23:27;;;;;;;4.75;1.63;;;;;;;;;;5053421;28;20029;-39
2022/11/09 12:25:53;;;;;;;2.10;1.33;;;;;;;;;;5051142;28;20040;-39
2022/11/09 12:28:31;;;;;;;1.48;1.17;;;;;;;;;;5052954;28;20378;-39
2022/11/09 12:31:09;;;;;;;3.47;1.65;;;;;;;;;;5040184;28;20025;-43
2022/11/09 12:33:48;;;;;;;4.32;1.50;;;;;;;;;;5045333;28;20021;-39
2022/11/09 12:36:20;;;;;;;2.72;1.30;;;;;;;;;;5051803;28;20539;-39
2022/11/09 12:39:06;;;;;;;3.30;1.15;;;;;;;;;;5050859;28;20033;-39
2022/11/09 12:41:35;;;;;;;2.15;1.40;;;;;;;;;;5037287;28;20042;-39
2022/11/09 12:44:24;;;;;;;1.58;1.35;;;;;;;;;;5049347;28;20079;-40
2022/11/09 12:47:16;;;;;;;2.03;1.25;;;;;;;;;;5038299;28;20040;-39
2022/11/09 12:49:43;;;;;;;4.55;1.08;;;;;;;;;;5047505;28;20075;-39
2022/11/09 12:52:14;;;;;;;0.82;0.63;;;;;;;;;;5043101;28;20032;-39
2022/11/09 12:54:47;;;;;;;2.72;1.38;;;;;;;;;;5049357;28;20025;-39
2022/11/09 12:57:18;;;;;;;2.33;0.95;;;;;;;;;;5049042;28;20097;-39
2022/11/09 12:59:50;;;;;;;2.22;1.30;;;;;;;;;;5044618;28;20025;-39
2022/11/09 13:02:24;;;;;;;1.90;0.80;;;;;;;;;;5044386;28;20014;-40
2022/11/09 13:04:57;;;;;;;1.60;0.90;;;;;;;;;;5038435;28;20037;-42
2022/11/09 13:07:42;;;;;;;2.75;1.25;;;;;;;;;;5041622;28;20025;-39
2022/11/09 13:10:21;;;;;;;2.85;1.20;;;;;;;;;;5045975;28;20025;-39
2022/11/09 13:12:47;;;;;;;1.85;1.20;;;;;;;;;;5039591;28;20118;-39
2022/11/09 13:15:21;;;;;;;1.90;1.02;;;;;;;;;;5050878;28;20112;-39
2022/11/09 13:17:52;;;;;;;2.58;1.00;;;;;;;;;;5052637;28;20033;-39
2022/11/09 13:20:34;;;;;;;3.83;1.40;;;;;;;;;;5046643;28;20045;-39
2022/11/09 13:23:01;;;;;;;2.13;1.00;;;;;;;;;;5050802;28;20037;-40
2022/11/09 13:25:46;;;;;;;2.17;1.10;;;;;;;;;;5045154;28;20064;-39
2022/11/09 13:28:27;;;;;;;1.98;1.13;;;;;;;;;;5041511;28;20074;-39
2022/11/09 13:30:59;;;;;;;2.23;0.80;;;;;;;;;;5051816;28;20053;-39
2022/11/09 13:33:28;;;;;;;2.40;1.00;;;;;;;;;;5048148;28;20032;-39
2022/11/09 13:35:58;;;;;;;1.52;1.00;;;;;;;;;;5044446;28;20116;-43
2022/11/09 13:38:30;;;;;;;1.50;0.88;;;;;;;;;;5052356;28;20039;-39
2022/11/09 13:40:57;;;;;;;1.30;1.08;;;;;;;;;;5043741;28;20064;-47
2022/11/09 13:43:28;;;;;;;2.53;1.15;;;;;;;;;;5043039;28;20037;-39
2022/11/09 13:45:58;;;;;;;2.83;0.80;;;;;;;;;;5051498;28;20025;-39
2022/11/09 13:48:24;;;;;;;2.45;1.10;;;;;;;;;;5043914;28;20152;-39
2022/11/09 13:50:52;;;;;;;2.60;1.20;;;;;;;;;;5025498;28;20533;-39
2022/11/09 13:53:27;;;;;;;3.30;1.08;;;;;;;;;;5051008;28;20028;-39
2022/11/09 13:55:53;;;;;;;1.52;0.90;;;;;;;;;;5050553;28;20037;-39
2022/11/09 13:58:28;;;;;;;3.00;1.10;;;;;;;;;;5051808;28;20040;-41
2022/11/09 14:00:54;;;;;;;1.45;1.02;;;;;;;;;;5050949;28;20114;-41
2022/11/09 14:03:25;;;;;;;2.95;1.10;;;;;;;;;;5051462;28;20118;-39
2022/11/09 14:05:52;;;;;;;1.95;1.05;;;;;;;;;;5042643;28;20033;-39
2022/11/09 14:08:22;;;;;;;1.85;1.00;;;;;;;;;;5043125;28;20022;-39
2022/11/09 14:10:54;;;;;;;1.02;0.80;;;;;;;;;;5036859;28;20437;-40
2022/11/09 14:13:23;;;;;;;1.38;1.00;;;;;;;;;;5046511;28;20552;-39
2022/11/09 14:15:49;;;;;;;2.92;0.90;;;;;;;;;;5051305;28;20044;-39
2022/11/09 14:18:15;;;;;;;1.52;0.90;;;;;;;;;;5050804;28;20025;-39
2022/11/09 14:20:45;;;;;;;3.00;0.90;;;;;;;;;;5047016;28;20037;-39
2022/11/09 14:23:16;;;;;;;1.92;0.82;;;;;;;;;;5049996;28;20032;-39
2022/11/09 14:25:42;;;;;;;1.65;0.90;;;;;;;;;;5050852;28;20078;-39
2022/11/09 14:28:20;;;;;;;1.42;0.80;;;;;;;;;;5048778;28;20025;-39
2022/11/09 14:30:47;;;;;;;1.52;1.10;;;;;;;;;;5042178;28;20495;-39
2022/11/09 14:33:22;;;;;;;2.47;1.20;;;;;;;;;;5046834;28;20040;-40
2022/11/09 14:35:48;;;;;;;2.05;1.13;;;;;;;;;;5042150;28;20049;-39
2022/11/09 14:38:25;;;;;;;1.35;0.90;;;;;;;;;;5047864;28;20025;-39
2022/11/09 14:40:52;;;;;;;1.95;0.95;;;;;;;;;;5049907;28;20048;-39
2022/11/09 14:43:31;;;;;;;1.33;1.00;;;;;;;;;;5042599;28;20171;-40
2022/11/09 14:46:01;;;;;;;1.35;0.75;;;;;;;;;;5038726;28;20040;-43
2022/11/09 14:48:27;;;;;;;1.50;1.00;;;;;;;;;;5040122;28;20017;-39
2022/11/09 14:50:55;;;;;;;1.40;0.95;;;;;;;;;;5038945;28;20049;-39
2022/11/09 14:53:25;;;;;;;1.42;0.80;;;;;;;;;;5039336;28;20032;-39